Truro, United Kingdom

5:17 PM BST on August 04, 2015 (GMT +0100)
Ladock | | Change Station
CLOSE
Current Station
Personal Weather Station
Location: Truro, CORNWALL
Elevation: 235 ft
Nearby Weather Stations

Elev 235 ft 50.33 °N, 4.94 °W | Updated 7 minutes ago

Haze
Haze
64.6 °F
Feels Like 64.6 °F
N
4.5
Wind Variable Wind from SSE
Gusts 8.3 mph

Today
High -- | Low -- °F
--% Chance of Precip.
Yesterday
High -- | Low -- °F
Precip. -- in
5:51 AM 8:58 PM
Waning Gibbous, 76% visible
Pressure 29.98 in
Visibility 6.2 miles
Clouds Few 2400 ft
Mostly Cloudy 14000 ft
Mostly Cloudy 28000 ft
Dew Point 53 °F
Humidity 65%
Rainfall 0.00 in
Snow Depth Not available.
UV 2 out of 12
Pollen Not available.
Air Quality Not available.
Flu Activity Not available.
METAR EGDR 041550Z 22013KT 9999 HZ FEW024 BKN140 BKN280 17/12 Q1015 BLU NOSIG

More Conditions Fewer Conditions

Pressure 29.98 in
Visibility 6.2 miles
Clouds Few 2400 ft
Mostly Cloudy 14000 ft
Mostly Cloudy 28000 ft
Dew Point 53 °F
Humidity 65%
Rainfall 0.00 in
Snow Depth Not available.
UV 2 out of 12
Pollen Not available.
Air Quality Not available.
Flu Activity Not available.
METAR EGDR 041550Z 22013KT 9999 HZ FEW024 BKN140 BKN280 17/12 Q1015 BLU NOSIG

More Conditions Fewer Conditions

10-Day Weather Forecast

×

Almanac

Astronomy

Aug. 04, 2015 Rise Set
Actual Time
Civil Twilight
Nautical Twilight
Astronomical Twilight
Moon
Length of Visible Light
Length of Day
Tomorrow will be .
, % of the Moon is Illuminated

Today's Extremes

Country Highs Country Lows

Community

WunderPhotos

Upload Photos

1,843,913 photos uploaded!

WunderBlogs® & News

Nearby

Air Quality

  Air Quality AQ Index Pollutant
Not available.

Snow Depth

Station Depth Elevation

Earthquake Activity

City Distance Mag. Time & Date
Minimum magnitude displayed is 2.5.

Coastal Water Temperatures

Place Temperature

Stations

Nearby Weather Stations

Station Location Temp. Windchill Dew Point Humidity Wind Precip. Elev Updated Type